Latest Weather Observations for Jabiru

IDD60801

Issued at 12:35 pm CST Saturday 25 October 2014 (issued every 30 minutes, with the page automatically refreshed every 10 minutes)

About weather observations | Map of weather stations | Latest weather observations for NT | Other Formats
Station Details ID: 014198 Name: JABIRU AIRPORT Lat: -12.66 Lon: 132.89 Height: 26.5 m
Data from the previous 72 hours. | See also: Recent months at Jabiru
Date/Time
CST
Temp
°C
App
Temp
°C
Dew
Point
Rel
Hum
%
Delta-T
°C
Wind Press
QNH
hPa
Press
MSL
hPa
Rain
since 9 am
mm
Dir
 
Spd
km/h
Gust
km/h
Spd
kts
Gust
kts
25/12:30pm 35.8 33.8 4.2 14 16.8 NE 4 20 2 11 1012.9 1012.7 0.0
25/12:00pm 34.5 33.7 6.7 18 15.3 SE 0 15 0 8 1013.4 1013.2 0.0
25/11:30am 34.0 34.0 9.9 23 13.9 CALM 0 15 0 8 1013.8 1013.6 0.0
25/11:00am 32.5 33.0 12.7 30 11.8 ESE 2 17 1 9 1014.5 1014.3 0.0
25/10:30am 32.0 32.5 15.1 36 10.4 SE 6 20 3 11 1015.0 1014.8 0.0
25/10:00am 31.6 32.1 12.9 32 11.2 SSE 2 17 1 9 1015.4 1015.2 0.0
25/09:30am 30.1 31.6 17.5 46 8.0 E 6 15 3 8 1015.6 1015.4 0.0
25/09:00am 28.9 31.1 19.5 57 6.1 S 7 15 4 8 1015.9 1015.7 0.0
25/08:30am 27.8 29.6 19.6 61 5.3 SW 9 15 5 8 1016.0 1015.8 0.0
25/08:00am 26.8 28.8 19.9 66 4.5 SSW 9 13 5 7 1015.8 1015.6 0.0
25/07:30am 24.8 26.8 19.2 71 3.6 SW 7 11 4 6 1015.7 1015.5 0.0
25/07:00am 23.3 25.3 18.8 76 2.9 SSW 6 9 3 5 1015.1 1014.9 0.0
25/06:30am 22.9 24.9 18.7 77 2.7 W 6 7 3 4 1014.4 1014.2 0.0
25/06:00am 23.1 25.0 18.6 76 2.8 W 6 7 3 4 1014.2 1014.0 0.0
25/05:30am 23.3 25.3 18.8 76 2.8 SW 6 6 3 3 1014.0 1013.8 0.0
25/05:00am 23.5 25.1 19.2 77 2.7 SW 9 9 5 5 1013.8 1013.6 0.0
25/04:30am 23.7 25.2 18.8 74 3.1 SSW 9 13 5 7 1013.4 1013.2 0.0
25/04:00am 24.3 27.2 19.1 73 3.3 S 2 6 1 3 1013.2 1013.0 0.0
25/03:30am 24.4 26.2 18.8 71 3.6 S 7 7 4 4 1013.1 1012.9 0.0
25/03:00am 25.0 27.1 18.9 69 3.9 WSW 6 7 3 4 1013.0 1012.8 0.0
25/02:30am 25.6 28.9 19.0 67 4.2 CALM 0 0 0 0 1013.2 1013.0 0.0
25/02:00am 26.2 29.5 19.1 65 4.6 CALM 0 2 0 1 1013.6 1013.4 0.0
25/01:30am 27.0 29.9 19.9 65 4.6 NE 4 7 2 4 1013.7 1013.5 0.0
25/01:00am 26.9 29.1 19.5 64 4.8 NNE 7 11 4 6 1013.9 1013.7 0.0
25/12:30am 26.8 28.5 18.6 60 5.2 NNE 7 9 4 5 1013.8 1013.6 0.0
25/12:00am 27.5 28.7 17.4 54 6.4 NE 7 9 4 5 1014.0 1013.8 0.0
 
Date/Time
CST
Temp
°C
App
Temp
°C
Dew
Point
Rel
Hum
%
Delta-T
°C
Wind Press
QNH
hPa
Press
MSL
hPa
Rain
since 9 am
mm
Dir
 
Spd
km/h
Gust
km/h
Spd
kts
Gust
kts
24/11:30pm 27.7 29.1 17.8 54 6.3 NE 7 11 4 6 1014.0 1013.8 0.0
24/11:00pm 28.1 28.8 17.0 51 7.0 NNE 9 15 5 8 1013.8 1013.6 0.0
24/10:30pm 28.5 27.8 16.4 48 7.5 NNE 15 24 8 13 1013.7 1013.5 0.0
24/10:00pm 27.7 29.5 18.4 57 5.9 NNE 6 11 3 6 1013.4 1013.2 0.0
24/09:30pm 28.1 29.0 18.5 56 6.2 N 11 15 6 8 1012.7 1012.5 0.0
24/09:00pm 28.7 28.9 18.5 54 6.5 N 15 22 8 12 1012.3 1012.1 0.0
24/08:30pm 29.7 29.7 18.2 50 7.4 NNW 15 22 8 12 1011.7 1011.5 0.0
24/08:00pm 31.0 31.3 17.0 43 8.9 N 11 15 6 8 1011.1 1010.9 0.0
24/07:30pm 31.9 30.7 15.0 36 10.4 N 15 26 8 14 1010.3 1010.0 0.0
24/07:00pm 32.8 31.6 13.9 31 11.5 N 13 22 7 12 1009.7 1009.4 0.0
24/06:30pm 35.0 33.0 8.7 20 14.9 ENE 9 13 5 7 1009.3 1009.0 0.0
24/06:00pm 35.8 32.6 8.6 19 15.5 ENE 15 20 8 11 1009.1 1008.8 0.0
24/05:30pm 36.8 32.9 8.6 18 16.1 E 19 24 10 13 1008.8 1008.5 0.0
24/05:00pm 37.0 33.3 7.9 17 16.5 NE 17 24 9 13 1008.6 1008.3 0.0
24/04:30pm 37.3 34.6 7.3 16 16.9 ESE 11 24 6 13 1008.4 1008.1 0.0
24/04:00pm 37.3 34.4 8.2 17 16.6 NE 13 20 7 11 1008.7 1008.4 0.0
24/03:30pm 37.3 33.5 9.0 18 16.3 ENE 19 35 10 19 1009.0 1008.7 0.0
24/03:00pm 38.0 33.7 7.8 16 17.2 ENE 20 30 11 16 1009.1 1008.8 0.0
24/02:30pm 38.3 34.5 9.0 17 17.0 ENE 19 30 10 16 1009.4 1009.1 0.0
24/02:00pm 37.7 33.2 8.5 17 16.7 E 22 28 12 15 1009.9 1009.6 0.0
24/01:30pm 36.7 32.8 9.3 19 15.8 E 20 30 11 16 1010.4 1010.1 0.0
24/01:00pm 36.1 31.5 9.6 20 15.3 E 24 37 13 20 1011.2 1011.0 0.0
24/12:30pm 36.2 33.5 11.8 23 14.6 ESE 17 28 9 15 1011.9 1011.7 0.0
24/12:00pm 35.5 33.1 12.5 25 13.9 ENE 17 26 9 14 1012.5 1012.3 0.0
24/11:30am 34.3 33.6 14.2 29 12.4 ESE 11 20 6 11 1013.1 1012.9 0.0
24/11:00am 33.1 32.6 16.0 35 10.7 E 13 20 7 11 1013.6 1013.4 0.0
24/10:30am 32.8 34.0 17.4 39 9.9 NNW 7 20 4 11 1014.1 1013.9 0.0
24/10:00am 30.7 32.4 18.4 47 7.9 E 7 13 4 7 1014.7 1014.5 0.0
24/09:30am 29.9 31.1 18.3 49 7.4 S 9 15 5 8 1015.0 1014.8 0.0
24/09:00am 28.5 30.9 19.7 59 5.7 SW 6 13 3 7 1015.1 1014.9 0.0
24/08:30am 27.8 30.5 20.6 65 4.7 WSW 7 11 4 6 1015.1 1014.9 0.0
24/08:00am 26.4 29.2 20.5 70 3.9 SSW 6 11 3 6 1014.9 1014.7 0.0
24/07:30am 25.3 27.6 19.9 72 3.5 SSW 7 11 4 6 1014.7 1014.5 0.0
24/07:00am 24.0 26.2 19.1 74 3.1 SSW 6 7 3 4 1014.3 1014.1 0.0
24/06:30am 23.1 26.2 18.6 76 2.8 CALM 0 0 0 0 1014.1 1013.9 0.0
24/06:00am 23.0 25.2 18.3 75 3.0 WSW 4 7 2 4 1013.6 1013.4 0.0
24/05:30am 23.2 24.9 18.5 75 3.0 SSW 7 9 4 5 1013.3 1013.1 0.0
24/05:00am 23.5 25.4 18.6 74 3.1 SSW 6 9 3 5 1013.1 1012.9 0.0
24/04:30am 23.6 24.9 18.5 73 3.2 SSW 9 11 5 6 1012.9 1012.7 0.0
24/04:00am 23.9 25.6 18.5 72 3.4 SSW 7 11 4 6 1012.8 1012.6 0.0
24/03:30am 24.4 26.2 18.8 71 3.6 S 7 9 4 5 1012.5 1012.3 0.0
24/03:00am 24.7 26.9 19.1 71 3.6 SW 6 7 3 4 1012.6 1012.4 0.0
24/02:30am 24.8 26.6 18.7 69 3.9 WSW 7 9 4 5 1013.0 1012.8 0.0
24/02:00am 25.2 27.1 18.9 68 4.0 WSW 7 11 4 6 1013.3 1013.1 0.0
24/01:30am 26.5 28.9 19.6 66 4.5 N 6 7 3 4 1013.4 1013.2 0.0
24/01:00am 26.8 29.1 19.4 64 4.8 NE 6 7 3 4 1013.7 1013.5 0.0
24/12:30am 27.1 29.1 19.2 62 5.1 NE 7 9 4 5 1013.9 1013.7 0.0
24/12:00am 27.3 28.8 18.9 60 5.4 NNE 9 13 5 7 1013.9 1013.7 0.0
 
Date/Time
CST
Temp
°C
App
Temp
°C
Dew
Point
Rel
Hum
%
Delta-T
°C
Wind Press
QNH
hPa
Press
MSL
hPa
Rain
since 9 am
mm
Dir
 
Spd
km/h
Gust
km/h
Spd
kts
Gust
kts
23/11:30pm 27.9 28.4 18.3 56 6.1 NNE 13 17 7 9 1014.3 1014.1 0.0
23/11:00pm 28.3 28.4 17.5 52 6.8 NNE 13 17 7 9 1014.3 1014.1 0.0
23/10:30pm 28.8 28.1 15.3 43 8.3 NE 13 20 7 11 1014.0 1013.8 0.0
23/10:00pm 28.8 27.8 14.6 42 8.6 NE 13 20 7 11 1013.7 1013.5 0.0
23/09:30pm 28.4 28.8 16.3 47 7.5 NNE 9 13 5 7 1013.1 1012.9 0.0
23/09:00pm 28.8 29.0 15.7 45 8.1 N 9 13 5 7 1012.5 1012.3 0.0
23/08:30pm 29.6 29.0 15.7 43 8.6 N 13 20 7 11 1011.9 1011.7 0.0
23/08:00pm 30.1 29.4 16.5 44 8.5 NNW 15 24 8 13 1011.5 1011.3 0.0
23/07:30pm 31.1 31.0 15.9 40 9.5 NNW 11 17 6 9 1010.8 1010.5 0.0
23/07:00pm 32.3 31.3 15.7 36 10.4 N 15 19 8 10 1010.2 1009.9 0.0
23/06:30pm 33.5 31.0 13.5 29 12.1 N 19 26 10 14 1009.7 1009.4 0.0
23/06:00pm 36.5 33.4 5.7 15 16.8 E 11 17 6 9 1009.0 1008.7 0.0
23/05:30pm 37.3 32.4 4.3 13 17.7 E 19 22 10 12 1008.5 1008.2 0.0
23/05:00pm 37.8 32.6 3.5 12 18.2 E 20 28 11 15 1008.3 1008.0 0.0
23/04:30pm 37.7 33.4 3.4 12 18.2 ENE 15 26 8 14 1008.3 1008.0 0.0
23/04:00pm 37.9 34.2 2.4 11 18.5 SE 11 17 6 9 1008.5 1008.2 0.0
23/03:30pm 37.8 34.3 3.5 12 18.2 E 11 20 6 11 1008.8 1008.5 0.0
23/03:00pm 37.5 32.3 3.3 12 18.1 ENE 20 33 11 18 1009.0 1008.7 0.0
23/02:30pm 38.3 33.2 3.9 12 18.5 ENE 20 30 11 16 1009.5 1009.2 0.0
23/02:00pm 37.4 32.4 4.4 13 17.7 ENE 20 30 11 16 1009.8 1009.5 0.0
23/01:30pm 36.6 29.9 3.7 13 17.4 E 28 43 15 23 1010.5 1010.2 0.0
23/01:00pm 36.7 31.0 4.9 14 17.2 ENE 24 32 13 17 1011.0 1010.7 0.0
23/12:30pm 36.1 31.6 4.4 14 16.9 ESE 17 32 9 17 1011.8 1011.6 0.0
23/12:00pm 36.2 32.0 5.5 15 16.7 ENE 17 30 9 16 1012.3 1012.1 0.0
23/11:30am 34.9 31.2 7.9 19 15.1 E 17 30 9 16 1012.9 1012.7 0.0
23/11:00am 33.8 31.1 10.4 24 13.6 ESE 15 26 8 14 1013.5 1013.3 0.0
23/10:30am 32.8 29.5 10.8 26 12.8 NE 19 26 10 14 1013.9 1013.7 0.0
23/10:00am 33.0 28.6 10.4 25 13.0 ENE 24 35 13 19 1014.5 1014.3 0.0
23/09:30am 31.1 31.7 16.7 42 9.1 N 9 15 5 8 1014.4 1014.2 0.0
23/09:00am 29.6 30.9 18.4 51 7.2 ENE 9 15 5 8 1014.6 1014.4 0.0
23/08:30am 28.1 30.5 19.6 60 5.5 NNE 6 15 3 8 1014.8 1014.6 0.0
23/08:00am 26.9 29.6 20.3 67 4.3 SE 6 9 3 5 1015.0 1014.8 0.0
23/07:30am 25.5 29.5 20.5 74 3.3 CALM 0 0 0 0 1014.8 1014.6 0.0
23/07:00am 23.7 27.4 20.0 80 2.4 CALM 0 0 0 0 1014.3 1014.1 0.0
23/06:30am 22.3 25.8 19.5 84 1.8 CALM 0 0 0 0 1013.9 1013.7 0.0
23/06:00am 22.3 25.7 19.3 83 1.9 CALM 0 0 0 0 1013.7 1013.5 0.0
23/05:30am 22.5 25.5 18.5 78 2.5 CALM 0 0 0 0 1013.3 1013.1 0.0
23/05:00am 23.7 27.2 19.6 78 2.6 CALM 0 0 0 0 1013.1 1012.9 0.0
23/04:30am 23.8 27.3 19.5 77 2.8 CALM 0 0 0 0 1013.0 1012.8 0.0
23/04:00am 23.8 27.3 19.5 77 2.8 CALM 0 0 0 0 1012.8 1012.6 0.0
23/03:30am 23.9 26.9 19.2 75 3.0 SSW 2 6 1 3 1012.8 1012.6 0.0
23/03:00am 24.1 26.2 19.0 73 3.2 SSW 6 7 3 4 1013.0 1012.8 0.0
23/02:30am 24.5 26.6 18.9 71 3.6 WSW 6 7 3 4 1013.0 1012.8 0.0
23/02:00am 24.6 26.5 19.0 71 3.6 SW 7 9 4 5 1013.4 1013.2 0.0
23/01:30am 25.3 27.5 19.2 69 3.9 NW 6 7 3 4 1013.4 1013.2 0.0
23/01:00am 25.3 27.2 19.0 68 4.0 NNW 7 11 4 6 1013.4 1013.2 0.0
23/12:30am 26.0 27.9 18.9 65 4.5 NNW 7 11 4 6 1013.9 1013.7 0.0
23/12:00am 27.0 28.6 19.1 62 5.1 NNE 9 13 5 7 1014.2 1014.0 0.0
 
Date/Time
CST
Temp
°C
App
Temp
°C
Dew
Point
Rel
Hum
%
Delta-T
°C
Wind Press
QNH
hPa
Press
MSL
hPa
Rain
since 9 am
mm
Dir
 
Spd
km/h
Gust
km/h
Spd
kts
Gust
kts
22/11:30pm 26.6 28.2 18.2 60 5.3 N 7 11 4 6 1014.5 1014.3 0.0
22/11:00pm 26.9 29.4 18.2 59 5.5 N 2 7 1 4 1014.4 1014.2 0.0
22/10:30pm 27.3 28.9 18.3 58 5.7 NNW 7 9 4 5 1014.1 1013.9 0.0
22/10:00pm 28.0 29.7 18.1 55 6.3 N 6 7 3 4 1013.8 1013.6 0.0
22/09:30pm 28.5 29.6 18.0 53 6.7 N 9 13 5 7 1013.5 1013.3 0.0
22/09:00pm 29.0 29.9 18.4 52 6.8 N 11 15 6 8 1012.9 1012.7 0.0
22/08:30pm 29.7 30.4 18.8 52 7.1 N 13 19 7 10 1012.4 1012.2 0.0
22/08:00pm 30.3 31.1 19.0 50 7.3 N 13 19 7 10 1011.9 1011.7 0.0
22/07:30pm 30.9 30.7 18.6 48 8.0 N 17 26 9 14 1011.5 1011.3 0.0
22/07:00pm 31.8 31.0 18.4 45 8.7 N 20 32 11 17 1010.7 1010.4 0.0
22/06:30pm 32.8 31.9 17.8 40 9.7 N 19 30 10 16 1010.1 1009.8 0.0
22/06:00pm 36.8 33.4 5.9 15 17.0 ENE 13 17 7 9 1009.4 1009.1 0.0
22/05:30pm 37.3 33.6 6.3 15 17.2 ESE 15 22 8 12 1009.1 1008.8 0.0
22/05:00pm 38.0 34.8 6.9 15 17.4 ESE 13 22 7 12 1008.8 1008.5 0.0
22/04:30pm 38.0 35.2 6.9 15 17.4 SE 11 19 6 10 1008.7 1008.4 0.0
22/04:00pm 38.0 34.2 5.9 14 17.7 E 15 41 8 22 1008.9 1008.6 0.0
22/03:30pm 37.6 34.2 7.5 16 17.0 ENE 15 24 8 13 1009.2 1008.9 0.0
22/03:00pm 37.9 34.9 7.7 16 17.1 E 13 32 7 17 1009.5 1009.2 0.0
22/02:30pm 37.2 34.3 8.1 17 16.5 E 13 26 7 14 1009.9 1009.6 0.0
22/02:00pm 37.7 34.7 9.3 18 16.5 SE 15 24 8 13 1010.5 1010.2 0.0
22/01:30pm 36.7 33.4 10.8 21 15.3 SE 19 30 10 16 1011.0 1010.7 0.0
22/01:00pm 35.9 33.0 10.9 22 14.7 E 17 28 9 15 1011.8 1011.6 0.0

Other Formats:

Comma delimited format used in spreadsheet applications
http://www.bom.gov.au/fwo/IDD60801/IDD60801.94137.axf

JavaScript Object Notation format (JSON) in row-major order
http://www.bom.gov.au/fwo/IDD60801/IDD60801.94137.json